Brookline Village, Massachusetts
Current Conditions -  °F | °C
As of 8:54 AM on Friday 24 Oct 2014 (Local Time) from KBOS Reporting Station
Haze Haze  
Wind Chill: 44°   Ceiling: 1400
Heat Index: 49°   Visibility: 5mi
Dew Point: 49°   Wind: 12mph
Humidity: 100%   Direction: 330°NNW
Pressure: 29.7"   Gusts: 18mph
Location:  42.33°N, 71.12°W
Report Text: KBOS 241254Z 33010G16KT 5SM BR SCT008 BKN014 OVC019 09/09 A2970 RMK AO2 SLP056 T00940094
Loading
Personal Weather Stations






























Interactive Weather Map
Tropical Storm Tracking
New forecast layout! Learn more

10-Day Weather Forecast

Advertisements
Track Severe Weather on mobile